sensor_id;sensor_type;location;lat;lon;timestamp;P1;durP1;ratioP1;P2;durP2;ratioP2
73695;SDS011;62000;42.262;12.210;2024-03-23T00:53:56;0.20;;;0.08;;
73695;SDS011;62000;42.262;12.210;2024-03-23T00:55:56;0.40;;;0.20;;
73695;SDS011;62000;42.262;12.210;2024-03-23T00:57:57;0.10;;;0.00;;
73695;SDS011;62000;42.262;12.210;2024-03-23T00:59:57;0.20;;;0.03;;
73695;SDS011;62000;42.262;12.210;2024-03-23T01:01:57;0.15;;;0.00;;
73695;SDS011;62000;42.262;12.210;2024-03-23T01:03:58;1.35;;;0.55;;
73695;SDS011;62000;42.262;12.210;2024-03-23T01:06:02;0.35;;;0.15;;
73695;SDS011;62000;42.262;12.210;2024-03-23T01:08:03;0.13;;;0.00;;
73695;SDS011;62000;42.262;12.210;2024-03-23T01:10:04;0.10;;;0.00;;
73695;SDS011;62000;42.262;12.210;2024-03-23T01:12:05;0.10;;;0.00;;
73695;SDS011;62000;42.262;12.210;2024-03-23T01:14:05;0.73;;;0.20;;
73695;SDS011;62000;42.262;12.210;2024-03-23T01:16:06;0.10;;;0.00;;
73695;SDS011;62000;42.262;12.210;2024-03-23T01:18:06;0.30;;;0.20;;
73695;SDS011;62000;42.262;12.210;2024-03-23T01:20:07;0.10;;;0.00;;
73695;SDS011;62000;42.262;12.210;2024-03-23T01:22:07;0.05;;;0.00;;
73695;SDS011;62000;42.262;12.210;2024-03-23T01:24:10;0.10;;;0.00;;
73695;SDS011;62000;42.262;12.210;2024-03-23T01:26:10;0.10;;;0.00;;
73695;SDS011;62000;42.262;12.210;2024-03-23T01:28:11;0.20;;;0.10;;
73695;SDS011;62000;42.262;12.210;2024-03-23T01:30:11;0.10;;;0.00;;
73695;SDS011;62000;42.262;12.210;2024-03-23T01:32:13;0.28;;;0.10;;
73695;SDS011;62000;42.262;12.210;2024-03-23T01:34:14;2.10;;;1.35;;
73695;SDS011;62000;42.262;12.210;2024-03-23T01:36:14;0.90;;;0.65;;
73695;SDS011;62000;42.262;12.210;2024-03-23T01:38:15;0.13;;;0.00;;
73695;SDS011;62000;42.262;12.210;2024-03-23T01:40:16;0.13;;;0.03;;
73695;SDS011;62000;42.262;12.210;2024-03-23T01:42:16;0.22;;;0.10;;
73695;SDS011;62000;42.262;12.210;2024-03-23T01:44:17;0.10;;;0.00;;
73695;SDS011;62000;42.262;12.210;2024-03-23T01:46:17;0.30;;;0.13;;
73695;SDS011;62000;42.262;12.210;2024-03-23T01:48:17;0.30;;;0.10;;
73695;SDS011;62000;42.262;12.210;2024-03-23T01:50:20;0.90;;;0.50;;
73695;SDS011;62000;42.262;12.210;2024-03-23T01:52:21;1.55;;;1.10;;
73695;SDS011;62000;42.262;12.210;2024-03-23T01:54:22;0.20;;;0.00;;
73695;SDS011;62000;42.262;12.210;2024-03-23T01:56:23;6.57;;;5.88;;
73695;SDS011;62000;42.262;12.210;2024-03-23T01:58:23;0.90;;;0.45;;
73695;SDS011;62000;42.262;12.210;2024-03-23T02:00:24;0.10;;;0.00;;
73695;SDS011;62000;42.262;12.210;2024-03-23T02:02:24;0.03;;;0.00;;
73695;SDS011;62000;42.262;12.210;2024-03-23T02:04:24;0.68;;;0.35;;
73695;SDS011;62000;42.262;12.210;2024-03-23T02:06:25;0.22;;;0.10;;
73695;SDS011;62000;42.262;12.210;2024-03-23T02:08:25;0.25;;;0.10;;
73695;SDS011;62000;42.262;12.210;2024-03-23T02:10:25;0.10;;;0.00;;
73695;SDS011;62000;42.262;12.210;2024-03-23T02:12:26;4.40;;;1.48;;
73695;SDS011;62000;42.262;12.210;2024-03-23T02:14:26;0.30;;;0.10;;
73695;SDS011;62000;42.262;12.210;2024-03-23T02:16:26;0.88;;;0.43;;
73695;SDS011;62000;42.262;12.210;2024-03-23T02:18:27;0.35;;;0.20;;
73695;SDS011;62000;42.262;12.210;2024-03-23T02:20:27;0.10;;;0.00;;
73695;SDS011;62000;42.262;12.210;2024-03-23T02:22:35;0.23;;;0.10;;
73695;SDS011;62000;42.262;12.210;2024-03-23T02:24:36;0.10;;;0.00;;
73695;SDS011;62000;42.262;12.210;2024-03-23T02:26:37;3.13;;;2.83;;
73695;SDS011;62000;42.262;12.210;2024-03-23T02:28:37;0.40;;;0.20;;
73695;SDS011;62000;42.262;12.210;2024-03-23T02:30:38;0.00;;;0.00;;
73695;SDS011;62000;42.262;12.210;2024-03-23T02:32:39;0.10;;;0.00;;
73695;SDS011;62000;42.262;12.210;2024-03-23T02:34:39;0.20;;;0.10;;
73695;SDS011;62000;42.262;12.210;2024-03-23T02:36:40;0.40;;;0.10;;
73695;SDS011;62000;42.262;12.210;2024-03-23T02:38:40;0.10;;;0.00;;
73695;SDS011;62000;42.262;12.210;2024-03-23T02:40:41;0.15;;;0.05;;
73695;SDS011;62000;42.262;12.210;2024-03-23T02:42:41;0.05;;;0.00;;
73695;SDS011;62000;42.262;12.210;2024-03-23T02:44:41;0.13;;;0.00;;
73695;SDS011;62000;42.262;12.210;2024-03-23T02:46:41;1.20;;;0.43;;
73695;SDS011;62000;42.262;12.210;2024-03-23T02:48:42;0.43;;;0.20;;
73695;SDS011;62000;42.262;12.210;2024-03-23T02:50:42;0.10;;;0.00;;
73695;SDS011;62000;42.262;12.210;2024-03-23T02:52:43;0.20;;;0.10;;
73695;SDS011;62000;42.262;12.210;2024-03-23T02:54:43;0.10;;;0.00;;
73695;SDS011;62000;42.262;12.210;2024-03-23T02:56:45;0.13;;;0.00;;
73695;SDS011;62000;42.262;12.210;2024-03-23T02:58:45;0.20;;;0.10;;
73695;SDS011;62000;42.262;12.210;2024-03-23T03:00:46;0.10;;;0.00;;
73695;SDS011;62000;42.262;12.210;2024-03-23T03:02:46;0.05;;;0.00;;
73695;SDS011;62000;42.262;12.210;2024-03-23T03:04:47;6.25;;;0.70;;
73695;SDS011;62000;42.262;12.210;2024-03-23T03:06:47;1.40;;;0.77;;
73695;SDS011;62000;42.262;12.210;2024-03-23T03:08:48;9.85;;;0.98;;
73695;SDS011;62000;42.262;12.210;2024-03-23T03:10:48;0.10;;;0.00;;
73695;SDS011;62000;42.262;12.210;2024-03-23T03:12:48;0.32;;;0.10;;
73695;SDS011;62000;42.262;12.210;2024-03-23T03:14:49;0.30;;;0.10;;
73695;SDS011;62000;42.262;12.210;2024-03-23T03:16:49;0.17;;;0.00;;
73695;SDS011;62000;42.262;12.210;2024-03-23T03:18:51;0.10;;;0.00;;
73695;SDS011;62000;42.262;12.210;2024-03-23T03:20:54;0.20;;;0.10;;
73695;SDS011;62000;42.262;12.210;2024-03-23T03:22:54;0.10;;;0.00;;
73695;SDS011;62000;42.262;12.210;2024-03-23T03:24:54;0.17;;;0.00;;
73695;SDS011;62000;42.262;12.210;2024-03-23T03:26:55;0.20;;;0.10;;
73695;SDS011;62000;42.262;12.210;2024-03-23T03:28:55;0.20;;;0.10;;
73695;SDS011;62000;42.262;12.210;2024-03-23T03:30:56;0.10;;;0.00;;
73695;SDS011;62000;42.262;12.210;2024-03-23T03:32:56;0.30;;;0.10;;
73695;SDS011;62000;42.262;12.210;2024-03-23T03:34:57;0.22;;;0.10;;
73695;SDS011;62000;42.262;12.210;2024-03-23T03:36:57;0.10;;;0.00;;
73695;SDS011;62000;42.262;12.210;2024-03-23T03:38:58;0.32;;;0.10;;
73695;SDS011;62000;42.262;12.210;2024-03-23T03:40:59;0.10;;;0.10;;
73695;SDS011;62000;42.262;12.210;2024-03-23T03:43:00;0.20;;;0.05;;
73695;SDS011;62000;42.262;12.210;2024-03-23T03:45:00;0.37;;;0.20;;
73695;SDS011;62000;42.262;12.210;2024-03-23T03:47:01;0.15;;;0.03;;
73695;SDS011;62000;42.262;12.210;2024-03-23T03:49:01;0.47;;;0.35;;
73695;SDS011;62000;42.262;12.210;2024-03-23T03:51:01;0.20;;;0.00;;
73695;SDS011;62000;42.262;12.210;2024-03-23T03:53:02;3.15;;;2.10;;
73695;SDS011;62000;42.262;12.210;2024-03-23T03:55:02;0.00;;;0.00;;
73695;SDS011;62000;42.262;12.210;2024-03-23T03:57:02;0.15;;;0.00;;
73695;SDS011;62000;42.262;12.210;2024-03-23T03:59:03;0.05;;;0.00;;
73695;SDS011;62000;42.262;12.210;2024-03-23T04:01:04;0.20;;;0.03;;
73695;SDS011;62000;42.262;12.210;2024-03-23T04:03:04;0.30;;;0.10;;
73695;SDS011;62000;42.262;12.210;2024-03-23T04:05:05;0.10;;;0.00;;
73695;SDS011;62000;42.262;12.210;2024-03-23T04:07:05;0.00;;;0.00;;
73695;SDS011;62000;42.262;12.210;2024-03-23T04:09:06;0.30;;;0.10;;
73695;SDS011;62000;42.262;12.210;2024-03-23T04:11:06;0.38;;;0.10;;
73695;SDS011;62000;42.262;12.210;2024-03-23T04:13:07;0.10;;;0.00;;
73695;SDS011;62000;42.262;12.210;2024-03-23T04:15:08;0.30;;;0.10;;
73695;SDS011;62000;42.262;12.210;2024-03-23T04:17:08;0.45;;;0.15;;
73695;SDS011;62000;42.262;12.210;2024-03-23T04:19:08;0.20;;;0.08;;
73695;SDS011;62000;42.262;12.210;2024-03-23T04:21:08;0.30;;;0.10;;
73695;SDS011;62000;42.262;12.210;2024-03-23T04:23:09;3.97;;;3.60;;
73695;SDS011;62000;42.262;12.210;2024-03-23T04:25:10;0.10;;;0.00;;
73695;SDS011;62000;42.262;12.210;2024-03-23T04:27:10;1.10;;;0.60;;
73695;SDS011;62000;42.262;12.210;2024-03-23T04:29:11;2.63;;;1.80;;
73695;SDS011;62000;42.262;12.210;2024-03-23T04:31:12;0.30;;;0.17;;
73695;SDS011;62000;42.262;12.210;2024-03-23T04:33:12;0.23;;;0.10;;
73695;SDS011;62000;42.262;12.210;2024-03-23T04:35:13;0.27;;;0.10;;
73695;SDS011;62000;42.262;12.210;2024-03-23T04:37:13;0.40;;;0.15;;
73695;SDS011;62000;42.262;12.210;2024-03-23T04:39:13;0.10;;;0.00;;
73695;SDS011;62000;42.262;12.210;2024-03-23T04:41:14;1.40;;;0.73;;
73695;SDS011;62000;42.262;12.210;2024-03-23T04:43:14;0.10;;;0.00;;
73695;SDS011;62000;42.262;12.210;2024-03-23T04:45:14;0.30;;;0.10;;
73695;SDS011;62000;42.262;12.210;2024-03-23T04:47:15;0.20;;;0.05;;
73695;SDS011;62000;42.262;12.210;2024-03-23T04:49:16;1.98;;;1.30;;
73695;SDS011;62000;42.262;12.210;2024-03-23T04:51:23;0.90;;;0.65;;
73695;SDS011;62000;42.262;12.210;2024-03-23T04:53:24;0.47;;;0.15;;
73695;SDS011;62000;42.262;12.210;2024-03-23T04:55:28;0.57;;;0.47;;
73695;SDS011;62000;42.262;12.210;2024-03-23T04:57:28;1.95;;;0.80;;
73695;SDS011;62000;42.262;12.210;2024-03-23T04:59:29;0.30;;;0.10;;
73695;SDS011;62000;42.262;12.210;2024-03-23T05:01:29;0.00;;;0.00;;
73695;SDS011;62000;42.262;12.210;2024-03-23T05:03:31;0.20;;;0.10;;
73695;SDS011;62000;42.262;12.210;2024-03-23T05:05:31;0.05;;;0.00;;
73695;SDS011;62000;42.262;12.210;2024-03-23T05:07:31;0.17;;;0.05;;
73695;SDS011;62000;42.262;12.210;2024-03-23T05:09:32;0.17;;;0.00;;
73695;SDS011;62000;42.262;12.210;2024-03-23T05:11:33;1.65;;;1.42;;
73695;SDS011;62000;42.262;12.210;2024-03-23T05:13:34;0.20;;;0.00;;
73695;SDS011;62000;42.262;12.210;2024-03-23T05:15:34;3.10;;;0.93;;
73695;SDS011;62000;42.262;12.210;2024-03-23T05:17:35;0.30;;;0.10;;
73695;SDS011;62000;42.262;12.210;2024-03-23T05:19:36;0.20;;;0.10;;
73695;SDS011;62000;42.262;12.210;2024-03-23T05:21:36;0.20;;;0.00;;
73695;SDS011;62000;42.262;12.210;2024-03-23T05:23:36;0.15;;;0.00;;
73695;SDS011;62000;42.262;12.210;2024-03-23T05:25:38;0.10;;;0.00;;
73695;SDS011;62000;42.262;12.210;2024-03-23T05:27:38;0.20;;;0.10;;
73695;SDS011;62000;42.262;12.210;2024-03-23T05:29:38;9.00;;;8.30;;
73695;SDS011;62000;42.262;12.210;2024-03-23T05:31:39;0.20;;;0.05;;
73695;SDS011;62000;42.262;12.210;2024-03-23T05:33:41;0.10;;;0.00;;
73695;SDS011;62000;42.262;12.210;2024-03-23T05:35:42;0.10;;;0.00;;
73695;SDS011;62000;42.262;12.210;2024-03-23T05:37:42;0.20;;;0.00;;
73695;SDS011;62000;42.262;12.210;2024-03-23T05:39:43;0.20;;;0.10;;
73695;SDS011;62000;42.262;12.210;2024-03-23T05:41:44;1.35;;;0.60;;
73695;SDS011;62000;42.262;12.210;2024-03-23T05:43:44;0.10;;;0.00;;
73695;SDS011;62000;42.262;12.210;2024-03-23T05:45:44;1.25;;;0.75;;
73695;SDS011;62000;42.262;12.210;2024-03-23T05:47:45;0.10;;;0.00;;
73695;SDS011;62000;42.262;12.210;2024-03-23T05:49:45;0.03;;;0.00;;
73695;SDS011;62000;42.262;12.210;2024-03-23T05:57:02;0.10;;;0.00;;
73695;SDS011;62000;42.262;12.210;2024-03-23T05:59:03;0.10;;;0.00;;
73695;SDS011;62000;42.262;12.210;2024-03-23T06:01:04;0.10;;;0.00;;
73695;SDS011;62000;42.262;12.210;2024-03-23T06:03:04;0.73;;;0.47;;
73695;SDS011;62000;42.262;12.210;2024-03-23T06:05:05;0.20;;;0.03;;
73695;SDS011;62000;42.262;12.210;2024-03-23T06:07:05;0.10;;;0.00;;
73695;SDS011;62000;42.262;12.210;2024-03-23T06:09:07;4.15;;;1.40;;
73695;SDS011;62000;42.262;12.210;2024-03-23T06:11:07;1.10;;;0.53;;
73695;SDS011;62000;42.262;12.210;2024-03-23T06:13:07;0.55;;;0.20;;
73695;SDS011;62000;42.262;12.210;2024-03-23T06:15:08;2.50;;;0.70;;
73695;SDS011;62000;42.262;12.210;2024-03-23T06:17:10;3.20;;;1.10;;
73695;SDS011;62000;42.262;12.210;2024-03-23T06:19:10;4.07;;;1.60;;
73695;SDS011;62000;42.262;12.210;2024-03-23T06:21:13;0.95;;;0.57;;
73695;SDS011;62000;42.262;12.210;2024-03-23T06:23:14;4.22;;;0.90;;
73695;SDS011;62000;42.262;12.210;2024-03-23T06:25:16;2.53;;;1.00;;
73695;SDS011;62000;42.262;12.210;2024-03-23T06:27:16;0.47;;;0.17;;
73695;SDS011;62000;42.262;12.210;2024-03-23T06:29:16;1.60;;;0.50;;
73695;SDS011;62000;42.262;12.210;2024-03-23T06:31:17;1.85;;;0.75;;
73695;SDS011;62000;42.262;12.210;2024-03-23T06:33:18;3.55;;;1.45;;
73695;SDS011;62000;42.262;12.210;2024-03-23T06:35:18;1.17;;;0.63;;
73695;SDS011;62000;42.262;12.210;2024-03-23T06:37:18;1.70;;;0.80;;
73695;SDS011;62000;42.262;12.210;2024-03-23T06:39:19;5.43;;;2.33;;
73695;SDS011;62000;42.262;12.210;2024-03-23T06:41:19;0.75;;;0.40;;
73695;SDS011;62000;42.262;12.210;2024-03-23T06:43:19;1.58;;;0.57;;
73695;SDS011;62000;42.262;12.210;2024-03-23T06:45:20;5.30;;;1.90;;
73695;SDS011;62000;42.262;12.210;2024-03-23T06:47:23;4.97;;;2.08;;
73695;SDS011;62000;42.262;12.210;2024-03-23T06:49:23;2.80;;;1.23;;
73695;SDS011;62000;42.262;12.210;2024-03-23T06:51:23;9.02;;;4.55;;
73695;SDS011;62000;42.262;12.210;2024-03-23T06:53:24;7.55;;;3.08;;
73695;SDS011;62000;42.262;12.210;2024-03-23T06:55:24;8.60;;;3.45;;
73695;SDS011;62000;42.262;12.210;2024-03-23T06:59:26;5.63;;;2.27;;
73695;SDS011;62000;42.262;12.210;2024-03-23T07:01:27;5.95;;;1.20;;
73695;SDS011;62000;42.262;12.210;2024-03-23T07:03:28;8.30;;;3.50;;
73695;SDS011;62000;42.262;12.210;2024-03-23T07:05:29;6.13;;;2.33;;
73695;SDS011;62000;42.262;12.210;2024-03-23T07:07:29;6.35;;;2.42;;
73695;SDS011;62000;42.262;12.210;2024-03-23T07:09:30;8.85;;;2.95;;
73695;SDS011;62000;42.262;12.210;2024-03-23T07:11:30;1.60;;;0.55;;
73695;SDS011;62000;42.262;12.210;2024-03-23T07:13:31;4.15;;;1.95;;
73695;SDS011;62000;42.262;12.210;2024-03-23T07:15:31;6.63;;;1.40;;
73695;SDS011;62000;42.262;12.210;2024-03-23T07:17:31;6.45;;;2.55;;
73695;SDS011;62000;42.262;12.210;2024-03-23T07:19:33;4.78;;;1.75;;
73695;SDS011;62000;42.262;12.210;2024-03-23T07:21:33;9.82;;;2.45;;
73695;SDS011;62000;42.262;12.210;2024-03-23T07:23:33;4.80;;;2.03;;
73695;SDS011;62000;42.262;12.210;2024-03-23T07:25:34;3.22;;;1.60;;
73695;SDS011;62000;42.262;12.210;2024-03-23T07:27:34;4.53;;;1.73;;
73695;SDS011;62000;42.262;12.210;2024-03-23T07:29:35;5.90;;;2.33;;
73695;SDS011;62000;42.262;12.210;2024-03-23T07:31:35;2.83;;;1.00;;
73695;SDS011;62000;42.262;12.210;2024-03-23T07:33:45;2.22;;;0.65;;
73695;SDS011;62000;42.262;12.210;2024-03-23T07:35:46;3.58;;;1.33;;
73695;SDS011;62000;42.262;12.210;2024-03-23T07:37:46;0.80;;;0.32;;
73695;SDS011;62000;42.262;12.210;2024-03-23T07:39:47;0.30;;;0.10;;
73695;SDS011;62000;42.262;12.210;2024-03-23T07:41:47;2.22;;;0.70;;
73695;SDS011;62000;42.262;12.210;2024-03-23T07:43:48;2.70;;;0.60;;
73695;SDS011;62000;42.262;12.210;2024-03-23T07:45:52;2.65;;;0.95;;
73695;SDS011;62000;42.262;12.210;2024-03-23T07:47:53;0.20;;;0.00;;
73695;SDS011;62000;42.262;12.210;2024-03-23T07:49:53;0.22;;;0.10;;
73695;SDS011;62000;42.262;12.210;2024-03-23T07:51:54;1.08;;;0.32;;
73695;SDS011;62000;42.262;12.210;2024-03-23T07:53:54;3.08;;;0.85;;
73695;SDS011;62000;42.262;12.210;2024-03-23T07:55:58;6.37;;;1.97;;
73695;SDS011;62000;42.262;12.210;2024-03-23T07:57:59;5.10;;;1.55;;
73695;SDS011;62000;42.262;12.210;2024-03-23T07:59:59;4.13;;;1.57;;
73695;SDS011;62000;42.262;12.210;2024-03-23T08:02:00;4.00;;;1.23;;
73695;SDS011;62000;42.262;12.210;2024-03-23T08:04:00;2.95;;;1.02;;
73695;SDS011;62000;42.262;12.210;2024-03-23T08:06:12;2.35;;;0.70;;
73695;SDS011;62000;42.262;12.210;2024-03-23T08:08:13;2.83;;;1.17;;
73695;SDS011;62000;42.262;12.210;2024-03-23T08:10:16;2.28;;;0.68;;
73695;SDS011;62000;42.262;12.210;2024-03-23T08:12:18;3.75;;;1.33;;
73695;SDS011;62000;42.262;12.210;2024-03-23T08:14:18;0.40;;;0.10;;
73695;SDS011;62000;42.262;12.210;2024-03-23T08:16:19;1.80;;;0.65;;
73695;SDS011;62000;42.262;12.210;2024-03-23T08:18:20;2.58;;;0.73;;
73695;SDS011;62000;42.262;12.210;2024-03-23T08:20:20;0.15;;;0.00;;
73695;SDS011;62000;42.262;12.210;2024-03-23T08:22:20;3.27;;;1.13;;
73695;SDS011;62000;42.262;12.210;2024-03-23T08:24:22;3.03;;;0.82;;
73695;SDS011;62000;42.262;12.210;2024-03-23T08:26:22;3.92;;;1.00;;
73695;SDS011;62000;42.262;12.210;2024-03-23T08:28:22;2.17;;;0.87;;
73695;SDS011;62000;42.262;12.210;2024-03-23T08:30:23;0.57;;;0.13;;
73695;SDS011;62000;42.262;12.210;2024-03-23T08:32:24;0.32;;;0.10;;
73695;SDS011;62000;42.262;12.210;2024-03-23T08:34:24;2.53;;;0.75;;
73695;SDS011;62000;42.262;12.210;2024-03-23T08:36:25;0.43;;;0.15;;
73695;SDS011;62000;42.262;12.210;2024-03-23T08:38:26;4.10;;;0.20;;
73695;SDS011;62000;42.262;12.210;2024-03-23T08:40:26;0.90;;;0.30;;
73695;SDS011;62000;42.262;12.210;2024-03-23T08:42:26;1.50;;;0.47;;
73695;SDS011;62000;42.262;12.210;2024-03-23T08:44:27;2.38;;;0.47;;
73695;SDS011;62000;42.262;12.210;2024-03-23T08:46:27;3.72;;;1.25;;
73695;SDS011;62000;42.262;12.210;2024-03-23T08:48:28;3.70;;;1.17;;
73695;SDS011;62000;42.262;12.210;2024-03-23T08:50:28;2.67;;;0.75;;
73695;SDS011;62000;42.262;12.210;2024-03-23T08:52:29;3.45;;;1.00;;
73695;SDS011;62000;42.262;12.210;2024-03-23T08:54:29;4.25;;;1.20;;
73695;SDS011;62000;42.262;12.210;2024-03-23T08:56:31;1.20;;;0.38;;
73695;SDS011;62000;42.262;12.210;2024-03-23T08:58:31;4.70;;;1.67;;
73695;SDS011;62000;42.262;12.210;2024-03-23T09:00:32;5.25;;;1.33;;
73695;SDS011;62000;42.262;12.210;2024-03-23T09:02:33;2.83;;;0.70;;
73695;SDS011;62000;42.262;12.210;2024-03-23T09:04:33;5.47;;;1.02;;
73695;SDS011;62000;42.262;12.210;2024-03-23T09:06:33;4.40;;;1.40;;
73695;SDS011;62000;42.262;12.210;2024-03-23T09:08:34;3.80;;;1.33;;
73695;SDS011;62000;42.262;12.210;2024-03-23T09:10:39;3.05;;;0.65;;
73695;SDS011;62000;42.262;12.210;2024-03-23T09:12:39;4.22;;;1.10;;
73695;SDS011;62000;42.262;12.210;2024-03-23T09:14:39;4.38;;;1.38;;
73695;SDS011;62000;42.262;12.210;2024-03-23T09:16:40;4.75;;;1.27;;
73695;SDS011;62000;42.262;12.210;2024-03-23T09:18:40;4.00;;;1.25;;
73695;SDS011;62000;42.262;12.210;2024-03-23T09:20:41;4.07;;;1.25;;
73695;SDS011;62000;42.262;12.210;2024-03-23T09:22:41;4.53;;;1.23;;
73695;SDS011;62000;42.262;12.210;2024-03-23T09:24:42;4.57;;;1.30;;
73695;SDS011;62000;42.262;12.210;2024-03-23T09:26:42;4.18;;;0.93;;
73695;SDS011;62000;42.262;12.210;2024-03-23T09:28:42;2.95;;;0.95;;
73695;SDS011;62000;42.262;12.210;2024-03-23T09:30:43;3.75;;;1.45;;
73695;SDS011;62000;42.262;12.210;2024-03-23T09:32:44;5.15;;;1.95;;
73695;SDS011;62000;42.262;12.210;2024-03-23T09:34:44;2.97;;;1.05;;
73695;SDS011;62000;42.262;12.210;2024-03-23T09:36:45;4.93;;;1.80;;
73695;SDS011;62000;42.262;12.210;2024-03-23T09:38:45;6.35;;;2.38;;
73695;SDS011;62000;42.262;12.210;2024-03-23T09:40:46;5.40;;;2.03;;
73695;SDS011;62000;42.262;12.210;2024-03-23T09:42:51;4.93;;;0.60;;
73695;SDS011;62000;42.262;12.210;2024-03-23T09:44:51;1.55;;;0.40;;
73695;SDS011;62000;42.262;12.210;2024-03-23T09:46:52;4.47;;;1.00;;
73695;SDS011;62000;42.262;12.210;2024-03-23T09:48:52;4.32;;;1.33;;
73695;SDS011;62000;42.262;12.210;2024-03-23T09:50:53;4.78;;;1.63;;
73695;SDS011;62000;42.262;12.210;2024-03-23T09:52:53;3.20;;;1.45;;
73695;SDS011;62000;42.262;12.210;2024-03-23T09:54:53;2.63;;;0.95;;
73695;SDS011;62000;42.262;12.210;2024-03-23T09:56:55;2.25;;;0.60;;
73695;SDS011;62000;42.262;12.210;2024-03-23T09:59:02;2.28;;;0.85;;
73695;SDS011;62000;42.262;12.210;2024-03-23T10:01:02;4.38;;;2.03;;
73695;SDS011;62000;42.262;12.210;2024-03-23T10:03:04;2.17;;;0.65;;
73695;SDS011;62000;42.262;12.210;2024-03-23T10:05:05;4.65;;;1.20;;
73695;SDS011;62000;42.262;12.210;2024-03-23T10:07:20;3.20;;;0.60;;
73695;SDS011;62000;42.262;12.210;2024-03-23T10:09:20;3.00;;;0.55;;
73695;SDS011;62000;42.262;12.210;2024-03-23T10:11:22;3.53;;;1.33;;
73695;SDS011;62000;42.262;12.210;2024-03-23T10:13:26;2.05;;;0.60;;
73695;SDS011;62000;42.262;12.210;2024-03-23T10:15:27;4.68;;;1.58;;
73695;SDS011;62000;42.262;12.210;2024-03-23T10:17:27;2.03;;;0.77;;
73695;SDS011;62000;42.262;12.210;2024-03-23T10:19:32;2.97;;;0.65;;
73695;SDS011;62000;42.262;12.210;2024-03-23T10:21:32;2.65;;;0.65;;
73695;SDS011;62000;42.262;12.210;2024-03-23T10:23:36;5.77;;;1.30;;
73695;SDS011;62000;42.262;12.210;2024-03-23T10:25:36;3.70;;;1.05;;
73695;SDS011;62000;42.262;12.210;2024-03-23T10:27:36;2.85;;;0.98;;
73695;SDS011;62000;42.262;12.210;2024-03-23T10:29:37;5.75;;;1.05;;
73695;SDS011;62000;42.262;12.210;2024-03-23T10:33:45;3.30;;;1.02;;
73695;SDS011;62000;42.262;12.210;2024-03-23T10:35:45;2.72;;;0.43;;
73695;SDS011;62000;42.262;12.210;2024-03-23T10:37:46;3.70;;;1.13;;
73695;SDS011;62000;42.262;12.210;2024-03-23T10:39:47;1.73;;;0.52;;
73695;SDS011;62000;42.262;12.210;2024-03-23T10:41:49;3.47;;;0.90;;
73695;SDS011;62000;42.262;12.210;2024-03-23T10:43:50;1.40;;;0.38;;
73695;SDS011;62000;42.262;12.210;2024-03-23T10:45:51;2.80;;;0.68;;
73695;SDS011;62000;42.262;12.210;2024-03-23T10:47:51;4.03;;;0.65;;
73695;SDS011;62000;42.262;12.210;2024-03-23T10:49:52;3.13;;;0.80;;
73695;SDS011;62000;42.262;12.210;2024-03-23T10:51:52;4.30;;;0.87;;
73695;SDS011;62000;42.262;12.210;2024-03-23T10:53:54;4.90;;;1.88;;
73695;SDS011;62000;42.262;12.210;2024-03-23T10:55:55;4.07;;;1.35;;
73695;SDS011;62000;42.262;12.210;2024-03-23T10:57:56;5.35;;;2.00;;
73695;SDS011;62000;42.262;12.210;2024-03-23T10:59:59;4.40;;;1.55;;
73695;SDS011;62000;42.262;12.210;2024-03-23T11:02:00;8.63;;;2.60;;
73695;SDS011;62000;42.262;12.210;2024-03-23T11:04:03;3.67;;;1.02;;
73695;SDS011;62000;42.262;12.210;2024-03-23T11:06:03;4.05;;;1.13;;
73695;SDS011;62000;42.262;12.210;2024-03-23T11:08:04;3.42;;;0.70;;
73695;SDS011;62000;42.262;12.210;2024-03-23T11:10:04;5.03;;;1.70;;
73695;SDS011;62000;42.262;12.210;2024-03-23T11:14:24;5.45;;;1.60;;
73695;SDS011;62000;42.262;12.210;2024-03-23T11:16:26;4.93;;;1.63;;
73695;SDS011;62000;42.262;12.210;2024-03-23T11:18:37;5.00;;;1.50;;
73695;SDS011;62000;42.262;12.210;2024-03-23T11:20:37;5.55;;;1.70;;
73695;SDS011;62000;42.262;12.210;2024-03-23T11:22:38;5.57;;;1.90;;
73695;SDS011;62000;42.262;12.210;2024-03-23T11:24:39;4.13;;;1.23;;
73695;SDS011;62000;42.262;12.210;2024-03-23T11:26:40;4.90;;;1.27;;
73695;SDS011;62000;42.262;12.210;2024-03-23T11:28:40;4.57;;;1.15;;
73695;SDS011;62000;42.262;12.210;2024-03-23T11:30:40;3.67;;;1.27;;
73695;SDS011;62000;42.262;12.210;2024-03-23T11:32:41;3.95;;;0.88;;
73695;SDS011;62000;42.262;12.210;2024-03-23T11:34:42;4.78;;;1.65;;
73695;SDS011;62000;42.262;12.210;2024-03-23T11:36:42;4.03;;;1.20;;
73695;SDS011;62000;42.262;12.210;2024-03-23T11:38:43;5.03;;;1.70;;
73695;SDS011;62000;42.262;12.210;2024-03-23T11:40:47;4.35;;;1.25;;
73695;SDS011;62000;42.262;12.210;2024-03-23T11:42:52;2.55;;;0.63;;
73695;SDS011;62000;42.262;12.210;2024-03-23T11:44:55;3.70;;;1.13;;
73695;SDS011;62000;42.262;12.210;2024-03-23T11:47:06;4.57;;;1.27;;
73695;SDS011;62000;42.262;12.210;2024-03-23T11:49:17;4.72;;;1.40;;
73695;SDS011;62000;42.262;12.210;2024-03-23T11:53:22;4.37;;;1.40;;
73695;SDS011;62000;42.262;12.210;2024-03-23T11:55:22;4.65;;;1.45;;
73695;SDS011;62000;42.262;12.210;2024-03-23T11:57:24;4.47;;;1.23;;
73695;SDS011;62000;42.262;12.210;2024-03-23T11:59:34;2.70;;;0.75;;
73695;SDS011;62000;42.262;12.210;2024-03-23T12:01:34;5.43;;;1.13;;
73695;SDS011;62000;42.262;12.210;2024-03-23T12:03:35;3.15;;;0.82;;
73695;SDS011;62000;42.262;12.210;2024-03-23T12:05:36;4.72;;;1.77;;
73695;SDS011;62000;42.262;12.210;2024-03-23T12:09:37;4.93;;;1.50;;
73695;SDS011;62000;42.262;12.210;2024-03-23T12:11:38;4.38;;;1.30;;
73695;SDS011;62000;42.262;12.210;2024-03-23T12:13:38;3.15;;;0.68;;
73695;SDS011;62000;42.262;12.210;2024-03-23T12:15:39;3.38;;;0.70;;
73695;SDS011;62000;42.262;12.210;2024-03-23T12:17:39;3.47;;;0.83;;
73695;SDS011;62000;42.262;12.210;2024-03-23T12:19:40;3.60;;;0.77;;
73695;SDS011;62000;42.262;12.210;2024-03-23T12:21:41;2.90;;;0.70;;
73695;SDS011;62000;42.262;12.210;2024-03-23T12:23:41;4.10;;;0.75;;
73695;SDS011;62000;42.262;12.210;2024-03-23T12:25:44;3.03;;;0.60;;
73695;SDS011;62000;42.262;12.210;2024-03-23T12:27:44;2.80;;;0.70;;
73695;SDS011;62000;42.262;12.210;2024-03-23T12:29:45;2.38;;;0.52;;
73695;SDS011;62000;42.262;12.210;2024-03-23T12:31:46;3.97;;;0.60;;
73695;SDS011;62000;42.262;12.210;2024-03-23T12:33:47;2.47;;;0.50;;
73695;SDS011;62000;42.262;12.210;2024-03-23T12:35:48;3.67;;;0.70;;
73695;SDS011;62000;42.262;12.210;2024-03-23T12:37:48;3.15;;;0.65;;
73695;SDS011;62000;42.262;12.210;2024-03-23T12:39:49;2.25;;;0.45;;
73695;SDS011;62000;42.262;12.210;2024-03-23T12:41:50;2.92;;;0.45;;
73695;SDS011;62000;42.262;12.210;2024-03-23T12:43:52;3.42;;;0.75;;
73695;SDS011;62000;42.262;12.210;2024-03-23T12:45:53;2.38;;;0.63;;
73695;SDS011;62000;42.262;12.210;2024-03-23T12:47:53;3.75;;;0.77;;
73695;SDS011;62000;42.262;12.210;2024-03-23T12:49:54;3.58;;;0.60;;
73695;SDS011;62000;42.262;12.210;2024-03-23T12:51:54;3.63;;;0.60;;
73695;SDS011;62000;42.262;12.210;2024-03-23T12:53:58;2.78;;;0.63;;
73695;SDS011;62000;42.262;12.210;2024-03-23T12:55:59;3.72;;;0.85;;
73695;SDS011;62000;42.262;12.210;2024-03-23T12:57:59;4.65;;;1.13;;
73695;SDS011;62000;42.262;12.210;2024-03-23T13:00:00;4.50;;;1.08;;
73695;SDS011;62000;42.262;12.210;2024-03-23T13:02:00;3.50;;;0.70;;
73695;SDS011;62000;42.262;12.210;2024-03-23T13:04:00;3.38;;;0.80;;
73695;SDS011;62000;42.262;12.210;2024-03-23T13:06:02;3.80;;;0.88;;